createdAt,value
2022-08-29T00:05:24.885Z,98690.38
2022-08-29T00:11:08.080Z,98689.34
2022-08-29T00:16:35.553Z,98688.50
2022-08-29T00:21:51.629Z,98687.48
2022-08-29T00:27:17.165Z,98690.67
2022-08-29T00:33:06.949Z,98696.75
2022-08-29T00:39:15.179Z,98699.94
2022-08-29T00:45:19.064Z,98699.44
2022-08-29T00:51:15.639Z,98699.71
2022-08-29T00:57:09.450Z,98701.23
2022-08-29T01:02:44.200Z,98699.73
2022-08-29T01:08:30.186Z,98701.73
2022-08-29T01:14:29.706Z,98704.13
2022-08-29T01:20:40.489Z,98703.35
2022-08-29T01:26:32.309Z,98699.45
2022-08-29T01:32:27.940Z,98698.92
2022-08-29T01:37:51.856Z,98704.84
2022-08-29T01:43:07.573Z,98710.13
2022-08-29T01:48:37.009Z,98713.23
2022-08-29T01:54:19.833Z,98716.62
2022-08-29T02:00:39.271Z,98715.94
2022-08-29T02:06:45.322Z,98722.51
2022-08-29T02:12:26.898Z,98717.15
2022-08-29T02:18:12.613Z,98712.77
2022-08-29T02:24:11.316Z,98712.91
2022-08-29T02:30:01.642Z,98712.98
2022-08-29T02:35:42.722Z,98718.08
2022-08-29T02:41:58.626Z,98722.83
2022-08-29T02:47:14.508Z,98728.86
2022-08-29T02:52:37.145Z,98732.75
2022-08-29T02:58:53.661Z,98736.63
2022-08-29T03:04:26.517Z,98735.90
2022-08-29T03:09:53.327Z,98738.79
2022-08-29T03:15:18.750Z,98740.83
2022-08-29T03:21:00.556Z,98745.47
2022-08-29T03:26:42.202Z,98745.64
2022-08-29T03:32:20.651Z,98756.15
2022-08-29T03:38:22.873Z,98755.45
2022-08-29T03:44:34.685Z,98760.86
2022-08-29T03:50:23.939Z,98771.53
2022-08-29T03:55:54.243Z,98775.45
2022-08-29T04:01:28.339Z,98776.52
2022-08-29T04:07:16.083Z,98778.29
2022-08-29T04:13:08.048Z,98785.98
2022-08-29T04:18:52.123Z,98792.02
2022-08-29T04:24:20.121Z,98798.25
2022-08-29T04:30:02.440Z,98801.64
2022-08-29T04:35:35.620Z,98812.86
2022-08-29T04:41:00.691Z,98829.72
2022-08-29T04:47:02.957Z,98829.11
2022-08-29T04:52:26.176Z,98835.14
2022-08-29T04:57:43.881Z,98842.77
2022-08-29T05:03:56.589Z,98848.06
2022-08-29T05:09:31.995Z,98856.13
2022-08-29T05:15:40.674Z,98864.04
2022-08-29T05:21:51.312Z,98864.10
2022-08-29T05:27:56.435Z,98870.26
2022-08-29T05:33:29.992Z,98875.77
2022-08-29T05:39:36.018Z,98886.70
2022-08-29T05:45:08.819Z,98883.98
2022-08-29T05:51:10.141Z,98882.16
2022-08-29T05:57:57.187Z,98882.84
2022-08-29T06:03:18.071Z,98893.61
2022-08-29T06:09:34.080Z,98899.09
2022-08-29T06:14:59.240Z,98910.77
2022-08-29T06:21:02.292Z,98914.23
2022-08-29T06:26:40.544Z,98916.73
2022-08-29T06:32:38.644Z,98928.30
2022-08-29T06:38:25.056Z,98934.45
2022-08-29T06:43:30.266Z,98940.20
2022-08-29T06:48:53.932Z,98947.45
2022-08-29T06:54:28.161Z,98950.23
2022-08-29T07:00:21.392Z,98963.59
2022-08-29T07:05:29.471Z,98963.95
2022-08-29T07:10:32.304Z,98965.64
2022-08-29T07:16:13.348Z,98968.72
2022-08-29T07:21:35.778Z,98970.86
2022-08-29T07:26:47.573Z,98976.33
2022-08-29T07:31:50.227Z,98978.29
2022-08-29T07:37:21.196Z,98985.38
2022-08-29T07:42:28.609Z,98992.98
2022-08-29T07:47:42.099Z,98992.95
2022-08-29T07:53:00.550Z,98990.71
2022-08-29T07:58:27.366Z,98992.67
2022-08-29T08:03:38.828Z,98999.67
2022-08-29T08:08:44.190Z,99005.29
2022-08-29T08:14:00.031Z,99002.93
2022-08-29T08:19:16.030Z,99007.97
2022-08-29T08:24:28.403Z,99015.55
2022-08-29T08:29:34.175Z,99013.73
2022-08-29T08:34:36.407Z,99011.44
2022-08-29T08:40:00.175Z,99012.27
2022-08-29T08:45:23.076Z,99014.05
2022-08-29T08:51:17.094Z,99021.23
2022-08-29T08:56:37.817Z,99024.27
2022-08-29T09:02:07.272Z,99019.95
2022-08-29T09:08:02.330Z,99012.27
2022-08-29T09:14:10.965Z,99014.62
2022-08-29T09:19:17.568Z,99015.55
2022-08-29T09:24:36.188Z,99010.82
2022-08-29T09:29:50.203Z,99003.71
2022-08-29T09:35:09.263Z,98998.59
2022-08-29T09:40:19.290Z,98996.55
2022-08-29T09:45:41.103Z,99000.70
2022-08-29T09:51:12.993Z,98997.20
2022-08-29T09:56:37.578Z,98993.17
2022-08-29T10:02:26.823Z,98986.33
2022-08-29T10:08:00.221Z,98993.70
2022-08-29T10:13:22.261Z,98989.77
2022-08-29T10:18:52.974Z,98990.61
2022-08-29T10:24:24.400Z,98990.17
2022-08-29T10:29:56.079Z,98989.55
2022-08-29T10:35:39.234Z,98993.83
2022-08-29T10:41:16.359Z,98992.79
2022-08-29T10:46:33.888Z,98989.20
2022-08-29T10:51:52.499Z,98987.80
2022-08-29T10:57:10.979Z,98980.71
2022-08-29T11:02:38.303Z,98979.26
2022-08-29T11:08:16.075Z,98979.50
2022-08-29T11:13:38.532Z,98980.55
2022-08-29T11:19:24.995Z,98979.66
2022-08-29T11:24:38.154Z,98967.06
2022-08-29T11:30:14.228Z,98960.77
2022-08-29T11:35:25.128Z,98958.15
2022-08-29T11:41:28.053Z,98959.02
2022-08-29T11:46:40.816Z,98965.27
2022-08-29T11:52:30.282Z,98966.21
2022-08-29T11:57:46.014Z,98958.39
2022-08-29T12:02:50.565Z,98957.47
2022-08-29T12:08:37.044Z,98958.40
2022-08-29T12:14:04.926Z,98959.48
2022-08-29T12:19:11.138Z,98956.23
2022-08-29T12:24:58.514Z,98948.84
2022-08-29T12:30:14.498Z,98945.27
2022-08-29T12:36:25.039Z,98939.21
2022-08-29T12:41:46.830Z,98940.89
2022-08-29T12:47:10.225Z,98937.37
2022-08-29T12:52:27.554Z,98941.03
2022-08-29T12:57:56.942Z,98936.64
2022-08-29T13:03:15.169Z,98939.15
2022-08-29T13:08:37.221Z,98936.24
2022-08-29T13:14:16.526Z,98929.33
2022-08-29T13:19:22.309Z,98925.56
2022-08-29T13:24:30.421Z,98924.66
2022-08-29T13:29:41.095Z,98925.41
2022-08-29T13:35:24.475Z,98921.53
2022-08-29T13:41:01.144Z,98921.98
2022-08-29T13:46:30.415Z,98916.65
2022-08-29T13:52:02.875Z,98910.89
2022-08-29T13:57:38.843Z,98909.91
2022-08-29T14:03:09.537Z,98912.51
2022-08-29T14:08:15.297Z,98915.60
2022-08-29T14:13:40.468Z,98922.56
2022-08-29T14:18:58.008Z,98921.77
2022-08-29T14:24:00.117Z,98923.02
2022-08-29T14:29:04.917Z,98919.66
2022-08-29T14:34:13.501Z,98924.67
2022-08-29T14:39:16.651Z,98922.95
2022-08-29T14:44:20.216Z,98924.79
2022-08-29T14:49:28.729Z,98923.35
2022-08-29T14:54:36.271Z,98920.80
2022-08-29T14:59:45.223Z,98922.36
2022-08-29T15:04:59.038Z,98921.73
2022-08-29T15:10:05.104Z,98920.63
2022-08-29T15:15:28.390Z,98916.27
2022-08-29T15:20:38.648Z,98916.27
2022-08-29T15:25:51.856Z,98912.14
2022-08-29T15:30:59.941Z,98909.78
2022-08-29T15:36:15.559Z,98907.30
2022-08-29T15:41:24.569Z,98910.02
2022-08-29T15:46:34.120Z,98910.50
2022-08-29T15:52:00.747Z,98909.17
2022-08-29T15:57:02.822Z,98906.49
2022-08-29T16:02:12.853Z,98908.77
2022-08-29T16:07:18.322Z,98906.36
2022-08-29T16:12:21.948Z,98905.38
2022-08-29T16:17:24.772Z,98905.71
2022-08-29T16:22:28.588Z,98903.66
2022-08-29T16:27:56.868Z,98899.45
2022-08-29T16:33:02.031Z,98894.11
2022-08-29T16:38:04.224Z,98898.56
2022-08-29T16:43:07.620Z,98898.15
2022-08-29T16:48:19.458Z,98898.50
2022-08-29T16:53:21.889Z,98892.89
2022-08-29T16:58:49.538Z,98887.70
2022-08-29T17:04:12.225Z,98893.98
2022-08-29T17:09:24.545Z,98889.31
2022-08-29T17:14:40.020Z,98891.78
2022-08-29T17:19:44.545Z,98894.76
2022-08-29T17:25:10.173Z,98901.77
2022-08-29T17:30:38.620Z,98910.01
2022-08-29T17:36:18.562Z,98907.33
2022-08-29T17:41:32.066Z,98909.54
2022-08-29T17:46:52.149Z,98913.66
2022-08-29T17:52:07.685Z,98913.83
2022-08-29T17:57:56.729Z,98919.00
2022-08-29T18:03:05.399Z,98933.88
2022-08-29T18:08:28.087Z,98934.18
2022-08-29T18:13:31.171Z,98935.59
2022-08-29T18:19:44.581Z,98939.25
2022-08-29T18:25:28.536Z,98943.04
2022-08-29T18:30:38.593Z,98946.52
2022-08-29T18:36:02.225Z,98954.13
2022-08-29T18:41:04.830Z,98961.06
2022-08-29T18:46:09.454Z,98969.59
2022-08-29T18:51:39.131Z,98976.62
2022-08-29T18:57:00.630Z,98979.78
2022-08-29T19:02:13.473Z,98987.24
2022-08-29T19:07:26.024Z,98998.46
2022-08-29T19:12:28.414Z,99002.96
2022-08-29T19:17:31.385Z,99006.27
2022-08-29T19:22:36.589Z,99012.50
2022-08-29T19:27:44.156Z,99020.44
2022-08-29T19:32:47.051Z,99022.93
2022-08-29T19:38:10.135Z,99022.79
2022-08-29T19:43:32.609Z,99022.77
2022-08-29T19:49:01.578Z,99026.25
2022-08-29T19:54:24.082Z,99028.55
2022-08-29T19:59:32.055Z,99027.67
2022-08-29T20:04:49.019Z,99027.04
2022-08-29T20:09:54.526Z,99033.08
2022-08-29T20:15:30.831Z,99033.80
2022-08-29T20:20:42.379Z,99037.58
2022-08-29T20:26:13.644Z,99040.96
2022-08-29T20:31:38.081Z,99047.98
2022-08-29T20:37:09.847Z,99048.54
2022-08-29T20:42:43.813Z,99047.10
2022-08-29T20:48:09.843Z,99045.28
2022-08-29T20:53:31.782Z,99045.48
2022-08-29T20:58:44.003Z,99052.09
2022-08-29T21:04:20.984Z,99057.56
2022-08-29T21:10:30.640Z,99063.24
2022-08-29T21:15:58.978Z,99054.86
2022-08-29T21:21:02.280Z,99056.98
2022-08-29T21:26:38.673Z,99060.14
2022-08-29T21:32:12.230Z,99053.50
2022-08-29T21:37:44.340Z,99047.88
2022-08-29T21:43:22.162Z,99055.15
2022-08-29T21:49:36.832Z,99057.08
2022-08-29T21:55:11.389Z,99056.15
2022-08-29T22:00:37.100Z,99052.17
2022-08-29T22:05:45.237Z,99050.94
2022-08-29T22:10:53.752Z,99055.08
2022-08-29T22:16:43.329Z,99059.49
2022-08-29T22:22:08.367Z,99057.23
2022-08-29T22:27:10.683Z,99058.45
2022-08-29T22:32:14.173Z,99056.84
2022-08-29T22:37:38.749Z,99059.28
2022-08-29T22:43:05.362Z,99062.04
2022-08-29T22:48:16.403Z,99062.52
2022-08-29T22:53:21.398Z,99057.63
2022-08-29T22:58:49.211Z,99054.08
2022-08-29T23:04:13.667Z,99050.94
2022-08-29T23:09:48.195Z,99048.71
2022-08-29T23:15:17.483Z,99052.89
2022-08-29T23:20:29.978Z,99054.48
2022-08-29T23:25:32.233Z,99051.15
2022-08-29T23:30:44.956Z,99050.39
2022-08-29T23:35:57.800Z,99050.73
2022-08-29T23:41:32.167Z,99045.38
2022-08-29T23:46:55.769Z,99037.86
2022-08-29T23:52:45.467Z,99038.84
2022-08-29T23:58:08.379Z,99041.09
